Crestview, FL

4:46 AM CDT on July 26, 2016 (GMT -0500)
Sikes | | Change Station

Elev 213 ft 30.78 °N, 86.52 °W | Updated 53 minutes ago

Clear
Clear
74 °F
Feels Like 74 °F
N
5
Wind Variable Wind from East

Today
High -- | Low -- °F
--% Chance of Precip.
Yesterday
High -- | Low -- °F
Precip. -- in
Pressure 29.97 in
Visibility 10.0 miles
Clouds Clear
Dew Point 73 °F
Humidity 97%
Rainfall 0.02 in
Snow Depth Not available.
6:00 AM 7:44 PM
Waning Gibbous, 56% visible
METAR KCEW 260853Z AUTO 08004KT 10SM CLR 23/23 A2998 RMK AO2 SLP149 60002 T02330228 58012
Pressure 29.97 in
Visibility 10.0 miles
Clouds Clear
Dew Point 73 °F
Humidity 97%
Rainfall 0.02 in
Snow Depth Not available.
6:00 AM 7:44 PM
Waning Gibbous, 56% visible
METAR KCEW 260853Z AUTO 08004KT 10SM CLR 23/23 A2998 RMK AO2 SLP149 60002 T02330228 58012

10-Day Weather Forecast

Almanac

Astronomy

Jul. 26, 2016 Rise Set
Actual Time
Civil Twilight
Nautical Twilight
Astronomical Twilight
Moon
Length of Visible Light
Length of Day
Tomorrow will be .
, % of the Moon is Illuminated

Today's Extremes

State Highs State Lows

Community

WunderPhotos

Upload Photos

1,927,557 photos uploaded!

WunderBlog® & News

Nearby

Air Quality

  Air Quality AQ Index Pollutant
Not available.

Snow Depth

Station Depth Elevation

Earthquake Activity

City Distance Mag. Time & Date
Minimum magnitude displayed is 2.5.

Coastal Water Temperatures

Place Temperature

Stations

Nearby Weather Stations

Station Location Temp. Windchill Dew Point Humidity Wind Precip. Elev Updated Type
                   

Watches & Warnings

There are currently no watches in effect.